Time;durP1;ratioP1;P1;durP2;ratioP2;P2;SDS_P1;SDS_P2;PMS_P1;PMS_P2;Temp;Humidity;BMP_temperature;BMP_pressure;BME280_temperature;BME280_humidity;BME280_pressure;Samples;Min_cycle;Max_cycle;Signal;HPM_P1;HPM_P2
2023/12/01 00:02:10;;;;;;;31.70;19.87;;;;;;;;;;770485;180;923461;-70
2023/12/01 00:04:36;;;;;;;32.10;18.97;;;;;;;;;;778376;179;1131444;-68
2023/12/01 00:07:02;;;;;;;34.43;20.20;;;;;;;;;;775225;179;919216;-66
2023/12/01 00:09:28;;;;;;;30.30;19.37;;;;;;;;;;774078;180;914832;-66
2023/12/01 00:11:53;;;;;;;35.10;20.65;;;;;;;;;;777051;180;817257;-67
2023/12/01 00:14:19;;;;;;;32.17;21.13;;;;;;;;;;772253;177;918987;-66
2023/12/01 00:16:45;;;;;;;31.15;19.08;;;;;;;;;;773352;180;918966;-66
2023/12/01 00:19:11;;;;;;;32.10;19.43;;;;;;;;;;777154;180;918190;-70
2023/12/01 00:21:37;;;;;;;38.30;19.90;;;;;;;;;;771760;180;921109;-70
2023/12/01 00:24:03;;;;;;;33.53;20.12;;;;;;;;;;771273;180;922787;-66
2023/12/01 00:26:29;;;;;;;36.73;20.63;;;;;;;;;;774424;180;911872;-69
2023/12/01 00:28:54;;;;;;;34.87;20.87;;;;;;;;;;771378;180;919460;-67
2023/12/01 00:31:20;;;;;;;35.63;20.37;;;;;;;;;;770963;180;920865;-69
2023/12/01 00:33:46;;;;;;;36.25;21.52;;;;;;;;;;772212;180;919105;-67
2023/12/01 00:36:12;;;;;;;39.43;22.20;;;;;;;;;;774413;180;919423;-71
2023/12/01 00:38:38;;;;;;;36.43;20.63;;;;;;;;;;760590;181;820582;-67
2023/12/01 00:41:04;;;;;;;36.50;20.43;;;;;;;;;;772544;180;915168;-70
2023/12/01 00:43:30;;;;;;;35.27;19.30;;;;;;;;;;777343;180;912316;-67
2023/12/01 00:45:56;;;;;;;31.27;19.83;;;;;;;;;;771125;180;915523;-69
2023/12/01 00:48:21;;;;;;;33.40;22.20;;;;;;;;;;770829;180;919645;-66
2023/12/01 00:50:47;;;;;;;40.83;20.60;;;;;;;;;;774603;180;917241;-67
2023/12/01 00:53:13;;;;;;;34.00;21.20;;;;;;;;;;770173;180;957944;-66
2023/12/01 00:55:39;;;;;;;29.80;17.85;;;;;;;;;;772304;180;918952;-70
2023/12/01 00:58:05;;;;;;;32.43;19.03;;;;;;;;;;772354;180;947421;-69
2023/12/01 01:00:31;;;;;;;33.00;20.90;;;;;;;;;;777039;180;913890;-70
2023/12/01 01:02:56;;;;;;;36.50;20.13;;;;;;;;;;772502;180;833308;-70
2023/12/01 01:05:22;;;;;;;37.08;21.62;;;;;;;;;;773359;180;918837;-69
2023/12/01 01:07:48;;;;;;;42.20;21.40;;;;;;;;;;768333;180;911766;-66
2023/12/01 01:10:14;;;;;;;36.83;19.95;;;;;;;;;;766748;177;934128;-70
2023/12/01 01:12:40;;;;;;;32.77;22.60;;;;;;;;;;770416;180;910644;-66
2023/12/01 01:15:06;;;;;;;32.23;19.67;;;;;;;;;;778874;180;894171;-66
2023/12/01 01:17:32;;;;;;;34.47;19.67;;;;;;;;;;764289;177;909855;-69
2023/12/01 01:19:59;;;;;;;29.50;18.10;;;;;;;;;;765570;180;911761;-71
2023/12/01 01:22:24;;;;;;;28.73;17.07;;;;;;;;;;771215;180;919249;-70
2023/12/01 01:24:50;;;;;;;33.30;18.47;;;;;;;;;;772357;180;908299;-69
2023/12/01 01:27:16;;;;;;;26.87;17.12;;;;;;;;;;771134;180;921218;-71
2023/12/01 01:29:42;;;;;;;32.07;16.60;;;;;;;;;;766617;180;923105;-67
2023/12/01 01:32:08;;;;;;;32.33;18.53;;;;;;;;;;773473;181;916262;-72
2023/12/01 01:34:34;;;;;;;32.33;18.83;;;;;;;;;;775986;178;909665;-70
2023/12/01 01:36:59;;;;;;;32.88;18.42;;;;;;;;;;757190;183;970603;-66
2023/12/01 01:39:26;;;;;;;33.03;18.03;;;;;;;;;;774183;179;1017725;-67
2023/12/01 01:41:51;;;;;;;38.03;19.30;;;;;;;;;;770155;179;916155;-66
2023/12/01 01:44:17;;;;;;;32.40;18.30;;;;;;;;;;763814;181;916457;-69
2023/12/01 01:46:43;;;;;;;26.57;15.97;;;;;;;;;;776130;180;911987;-66
2023/12/01 01:49:09;;;;;;;32.40;21.17;;;;;;;;;;770910;179;940892;-70
2023/12/01 01:51:35;;;;;;;45.03;20.37;;;;;;;;;;771424;180;919075;-71
2023/12/01 01:54:00;;;;;;;28.97;18.40;;;;;;;;;;774267;178;918256;-67
2023/12/01 01:56:26;;;;;;;36.30;20.43;;;;;;;;;;763330;181;918936;-70
2023/12/01 01:58:52;;;;;;;37.10;23.03;;;;;;;;;;771497;180;919776;-65
2023/12/01 02:01:18;;;;;;;42.50;23.70;;;;;;;;;;771896;178;916428;-69
2023/12/01 02:03:44;;;;;;;41.40;21.80;;;;;;;;;;776895;180;917776;-70
2023/12/01 02:06:10;;;;;;;39.90;20.43;;;;;;;;;;759415;180;919325;-72
2023/12/01 02:08:35;;;;;;;39.23;21.67;;;;;;;;;;772402;178;919532;-69
2023/12/01 02:11:01;;;;;;;43.63;21.60;;;;;;;;;;775923;180;923609;-70
2023/12/01 02:13:30;;;;;;;41.53;20.70;;;;;;;;;;770829;180;926295;-70
2023/12/01 02:15:56;;;;;;;40.13;23.27;;;;;;;;;;773077;178;919707;-67
2023/12/01 02:18:22;;;;;;;41.90;22.65;;;;;;;;;;770640;180;916547;-69
2023/12/01 02:20:48;;;;;;;37.65;22.23;;;;;;;;;;777489;180;1021939;-67
2023/12/01 02:23:14;;;;;;;45.03;22.00;;;;;;;;;;770819;181;920710;-71
2023/12/01 02:25:40;;;;;;;34.80;21.00;;;;;;;;;;771050;180;919241;-70
2023/12/01 02:28:06;;;;;;;43.90;23.27;;;;;;;;;;779380;180;918953;-70
2023/12/01 02:30:31;;;;;;;42.07;23.70;;;;;;;;;;772740;180;921276;-70
2023/12/01 02:32:57;;;;;;;35.38;22.05;;;;;;;;;;774081;180;918694;-66
2023/12/01 02:35:23;;;;;;;37.23;22.90;;;;;;;;;;778684;177;914553;-66
2023/12/01 02:37:49;;;;;;;49.50;24.93;;;;;;;;;;773100;180;919482;-70
2023/12/01 02:40:15;;;;;;;35.40;21.10;;;;;;;;;;773476;180;918600;-65
2023/12/01 02:42:45;;;;;;;40.70;23.70;;;;;;;;;;771869;180;918935;-66
2023/12/01 02:45:10;;;;;;;35.07;22.33;;;;;;;;;;779251;180;918808;-66
2023/12/01 02:47:36;;;;;;;41.57;23.00;;;;;;;;;;771911;178;918750;-70
2023/12/01 02:50:02;;;;;;;42.80;24.80;;;;;;;;;;772727;178;919486;-69
2023/12/01 02:52:28;;;;;;;46.17;23.80;;;;;;;;;;777327;180;917338;-66
2023/12/01 02:54:54;;;;;;;41.73;23.60;;;;;;;;;;770418;178;918993;-66
2023/12/01 02:57:20;;;;;;;38.87;23.67;;;;;;;;;;760361;181;823755;-66
2023/12/01 02:59:45;;;;;;;40.67;23.03;;;;;;;;;;778946;180;840203;-69
2023/12/01 03:02:11;;;;;;;44.93;26.53;;;;;;;;;;772120;180;918460;-66
2023/12/01 03:04:37;;;;;;;39.47;22.80;;;;;;;;;;771535;180;828275;-66
2023/12/01 03:07:04;;;;;;;38.35;23.23;;;;;;;;;;766268;178;919244;-66
2023/12/01 03:09:29;;;;;;;37.43;21.27;;;;;;;;;;753151;185;919309;-65
2023/12/01 03:11:55;;;;;;;40.80;23.60;;;;;;;;;;753195;184;920799;-70
2023/12/01 03:14:22;;;;;;;38.87;23.00;;;;;;;;;;751604;181;917175;-66
2023/12/01 03:16:46;;;;;;;38.33;23.07;;;;;;;;;;758981;182;867015;-65
2023/12/01 03:19:12;;;;;;;36.63;20.50;;;;;;;;;;768502;180;918517;-65
2023/12/01 03:21:38;;;;;;;40.63;24.50;;;;;;;;;;772116;180;918816;-70
2023/12/01 03:24:04;;;;;;;34.00;22.00;;;;;;;;;;778015;180;815709;-70
2023/12/01 03:26:30;;;;;;;38.67;22.27;;;;;;;;;;772010;180;927051;-66
2023/12/01 03:28:56;;;;;;;38.90;23.23;;;;;;;;;;774016;180;912902;-69
2023/12/01 03:31:22;;;;;;;39.78;22.30;;;;;;;;;;775193;180;918188;-66
2023/12/01 03:33:48;;;;;;;39.60;21.47;;;;;;;;;;769204;180;912903;-66
2023/12/01 03:36:14;;;;;;;35.72;21.02;;;;;;;;;;770171;179;918982;-66
2023/12/01 03:38:40;;;;;;;34.37;23.20;;;;;;;;;;769042;180;1022759;-66
2023/12/01 03:41:06;;;;;;;36.93;21.50;;;;;;;;;;781089;179;817486;-66
2023/12/01 03:43:33;;;;;;;36.13;21.67;;;;;;;;;;774172;180;1019826;-66
2023/12/01 03:45:58;;;;;;;41.17;23.50;;;;;;;;;;775314;180;918866;-69
2023/12/01 03:48:23;;;;;;;38.50;21.47;;;;;;;;;;778903;178;816416;-69
2023/12/01 03:50:50;;;;;;;39.80;21.83;;;;;;;;;;773286;177;969770;-66
2023/12/01 03:53:15;;;;;;;39.50;21.93;;;;;;;;;;773436;180;917986;-69
2023/12/01 03:55:41;;;;;;;36.95;25.23;;;;;;;;;;776000;180;919152;-66
2023/12/01 03:58:07;;;;;;;45.17;23.97;;;;;;;;;;768890;178;919939;-70
2023/12/01 04:00:33;;;;;;;38.87;20.73;;;;;;;;;;773487;180;914471;-65
2023/12/01 04:02:59;;;;;;;37.78;22.02;;;;;;;;;;778898;180;916778;-66
2023/12/01 04:05:26;;;;;;;32.83;19.27;;;;;;;;;;785089;180;632744;-69
2023/12/01 04:07:50;;;;;;;38.43;21.80;;;;;;;;;;771418;181;942261;-71
2023/12/01 04:10:16;;;;;;;39.30;21.50;;;;;;;;;;771452;180;918683;-70
2023/12/01 04:12:44;;;;;;;33.70;21.13;;;;;;;;;;777831;180;924767;-70
2023/12/01 04:15:12;;;;;;;36.90;21.97;;;;;;;;;;773365;177;919084;-69
2023/12/01 04:17:35;;;;;;;35.20;20.13;;;;;;;;;;772850;179;918485;-68
2023/12/01 04:20:04;;;;;;;35.17;21.33;;;;;;;;;;776976;180;918701;-66
2023/12/01 04:22:27;;;;;;;37.90;23.17;;;;;;;;;;763473;179;917681;-66
2023/12/01 04:24:55;;;;;;;37.30;21.33;;;;;;;;;;772944;178;922942;-70
2023/12/01 04:27:19;;;;;;;38.47;21.73;;;;;;;;;;773253;180;918609;-66
2023/12/01 04:29:45;;;;;;;38.92;21.77;;;;;;;;;;771892;180;919206;-66
2023/12/01 04:32:10;;;;;;;40.97;21.83;;;;;;;;;;775836;178;753680;-69
2023/12/01 04:34:36;;;;;;;36.27;21.00;;;;;;;;;;773034;180;864166;-69
2023/12/01 04:37:09;;;;;;;38.40;23.20;;;;;;;;;;777602;180;921206;-66
2023/12/01 04:39:28;;;;;;;36.13;19.80;;;;;;;;;;767990;180;922276;-67
2023/12/01 04:41:54;;;;;;;33.70;20.10;;;;;;;;;;766867;180;919508;-66
2023/12/01 04:44:20;;;;;;;33.57;22.10;;;;;;;;;;777159;180;919122;-67
2023/12/01 04:46:45;;;;;;;41.85;23.52;;;;;;;;;;774713;180;875253;-70
2023/12/01 04:49:11;;;;;;;40.67;23.97;;;;;;;;;;765491;178;920827;-70
2023/12/01 04:51:37;;;;;;;38.17;21.17;;;;;;;;;;770782;180;820169;-65
2023/12/01 04:54:04;;;;;;;35.20;21.00;;;;;;;;;;774493;178;915791;-70
2023/12/01 04:56:29;;;;;;;34.37;21.10;;;;;;;;;;773286;181;909186;-69
2023/12/01 04:58:55;;;;;;;40.13;21.37;;;;;;;;;;771446;180;922061;-69
2023/12/01 05:01:21;;;;;;;35.10;18.35;;;;;;;;;;778099;180;904314;-70
2023/12/01 05:03:46;;;;;;;36.00;20.90;;;;;;;;;;770403;180;925966;-70
2023/12/01 05:06:12;;;;;;;37.40;20.57;;;;;;;;;;773229;178;850333;-70
2023/12/01 05:08:38;;;;;;;35.00;20.43;;;;;;;;;;777177;177;923031;-66
2023/12/01 05:11:04;;;;;;;35.57;19.90;;;;;;;;;;774636;180;815899;-66
2023/12/01 05:13:30;;;;;;;38.30;20.93;;;;;;;;;;772446;178;917361;-71
2023/12/01 05:15:56;;;;;;;33.70;19.73;;;;;;;;;;777817;181;920271;-70
2023/12/01 05:18:22;;;;;;;37.50;21.53;;;;;;;;;;775449;180;911896;-66
2023/12/01 05:20:48;;;;;;;38.40;21.97;;;;;;;;;;773725;180;918151;-70
2023/12/01 05:23:14;;;;;;;33.97;21.17;;;;;;;;;;770324;180;924883;-69
2023/12/01 05:25:41;;;;;;;46.50;24.63;;;;;;;;;;772034;181;914477;-71
2023/12/01 05:28:05;;;;;;;36.80;21.10;;;;;;;;;;770277;180;919864;-66
2023/12/01 05:30:31;;;;;;;38.03;22.23;;;;;;;;;;766964;177;838201;-66
2023/12/01 05:32:58;;;;;;;44.93;22.67;;;;;;;;;;769261;181;624576;-66
2023/12/01 05:35:23;;;;;;;38.27;22.40;;;;;;;;;;777184;178;627490;-66
2023/12/01 05:37:49;;;;;;;39.43;21.47;;;;;;;;;;776562;180;633857;-66
2023/12/01 05:40:15;;;;;;;39.43;23.30;;;;;;;;;;779350;180;629782;-70
2023/12/01 05:42:41;;;;;;;37.70;20.23;;;;;;;;;;775442;178;619358;-66
2023/12/01 05:45:11;;;;;;;36.43;21.17;;;;;;;;;;770026;177;645363;-69
2023/12/01 05:47:33;;;;;;;44.35;23.10;;;;;;;;;;769958;181;628654;-67
2023/12/01 05:49:59;;;;;;;38.57;22.60;;;;;;;;;;767075;182;615560;-67
2023/12/01 05:52:25;;;;;;;37.53;24.00;;;;;;;;;;757676;184;925809;-66
2023/12/01 05:54:52;;;;;;;51.43;24.23;;;;;;;;;;734073;186;904920;-69
2023/12/01 05:57:16;;;;;;;48.60;25.40;;;;;;;;;;780694;180;628401;-71
2023/12/01 05:59:42;;;;;;;41.83;24.33;;;;;;;;;;775923;180;631163;-66
2023/12/01 06:02:11;;;;;;;44.93;25.43;;;;;;;;;;777409;179;623813;-71
2023/12/01 06:04:34;;;;;;;39.40;23.83;;;;;;;;;;783405;180;628053;-71
2023/12/01 06:07:00;;;;;;;53.67;27.50;;;;;;;;;;779144;177;841118;-65
2023/12/01 06:09:26;;;;;;;56.73;26.97;;;;;;;;;;758195;183;916964;-66
2023/12/01 06:11:52;;;;;;;53.50;28.80;;;;;;;;;;774437;180;918275;-70
2023/12/01 06:14:17;;;;;;;50.80;27.33;;;;;;;;;;774493;178;817964;-67
2023/12/01 06:16:43;;;;;;;63.57;29.50;;;;;;;;;;773826;180;818964;-65
2023/12/01 06:19:09;;;;;;;62.63;29.73;;;;;;;;;;770880;180;919153;-66
2023/12/01 06:21:35;;;;;;;53.30;29.63;;;;;;;;;;778147;179;920024;-66
2023/12/01 06:24:01;;;;;;;52.40;29.07;;;;;;;;;;772267;180;927927;-69
2023/12/01 06:26:27;;;;;;;50.20;28.90;;;;;;;;;;772876;177;918544;-66
2023/12/01 06:28:52;;;;;;;60.07;30.53;;;;;;;;;;777224;180;917578;-66
2023/12/01 06:31:18;;;;;;;54.25;31.05;;;;;;;;;;771029;180;918764;-66
2023/12/01 06:33:44;;;;;;;49.93;29.27;;;;;;;;;;772257;178;897932;-66
2023/12/01 06:36:10;;;;;;;43.23;27.03;;;;;;;;;;779534;180;875830;-70
2023/12/01 06:38:36;;;;;;;45.50;28.00;;;;;;;;;;772437;179;912885;-66
2023/12/01 06:41:02;;;;;;;52.93;27.03;;;;;;;;;;773228;178;916473;-66
2023/12/01 06:43:30;;;;;;;52.92;30.08;;;;;;;;;;775047;180;917307;-66
2023/12/01 06:45:54;;;;;;;54.10;30.63;;;;;;;;;;770612;180;919173;-69
2023/12/01 06:48:20;;;;;;;52.88;27.58;;;;;;;;;;771598;180;920285;-66
2023/12/01 06:50:47;;;;;;;43.53;25.33;;;;;;;;;;771256;180;944477;-67
2023/12/01 06:53:12;;;;;;;47.37;26.60;;;;;;;;;;776941;180;816172;-69
2023/12/01 06:55:37;;;;;;;55.17;31.00;;;;;;;;;;770177;180;914681;-70
2023/12/01 06:58:03;;;;;;;76.18;42.88;;;;;;;;;;771706;180;917497;-66
2023/12/01 07:00:29;;;;;;;60.07;34.97;;;;;;;;;;777940;180;917804;-71
2023/12/01 07:02:57;;;;;;;55.50;30.73;;;;;;;;;;758133;181;926988;-66
2023/12/01 07:05:23;;;;;;;57.00;33.03;;;;;;;;;;769208;177;915453;-66
2023/12/01 07:07:49;;;;;;;70.25;35.45;;;;;;;;;;774343;178;986009;-69
2023/12/01 07:10:15;;;;;;;73.53;36.43;;;;;;;;;;770204;180;819365;-69
2023/12/01 07:12:41;;;;;;;68.07;34.40;;;;;;;;;;762861;180;1016093;-66
2023/12/01 07:15:11;;;;;;;67.53;36.03;;;;;;;;;;773275;178;1024683;-66
2023/12/01 07:17:35;;;;;;;69.90;37.80;;;;;;;;;;779873;178;880200;-69
2023/12/01 07:20:00;;;;;;;66.20;36.40;;;;;;;;;;771384;179;919403;-70
2023/12/01 07:22:26;;;;;;;63.15;36.22;;;;;;;;;;771757;180;919390;-70
2023/12/01 07:24:54;;;;;;;55.03;30.03;;;;;;;;;;777855;180;918965;-65
2023/12/01 07:27:23;;;;;;;59.40;31.23;;;;;;;;;;772250;180;920040;-66
2023/12/01 07:29:44;;;;;;;61.13;35.17;;;;;;;;;;774076;180;918874;-66
2023/12/01 07:32:10;;;;;;;61.83;36.70;;;;;;;;;;775815;180;815526;-69
2023/12/01 07:34:36;;;;;;;58.50;32.27;;;;;;;;;;768887;180;915922;-71
2023/12/01 07:37:10;;;;;;;57.13;33.00;;;;;;;;;;771152;179;820424;-70
2023/12/01 07:39:28;;;;;;;48.60;29.60;;;;;;;;;;771335;180;917965;-66
2023/12/01 07:41:56;;;;;;;54.70;29.80;;;;;;;;;;779232;180;816192;-70
2023/12/01 07:44:20;;;;;;;51.40;29.20;;;;;;;;;;773707;180;929340;-66
2023/12/01 07:46:45;;;;;;;49.70;28.50;;;;;;;;;;757301;182;920981;-66
2023/12/01 07:49:11;;;;;;;54.13;30.53;;;;;;;;;;774791;180;741528;-70
2023/12/01 07:51:38;;;;;;;55.70;30.87;;;;;;;;;;770962;180;918880;-66
2023/12/01 07:54:04;;;;;;;54.53;30.80;;;;;;;;;;772464;177;917756;-70
2023/12/01 07:56:31;;;;;;;52.33;31.15;;;;;;;;;;776700;177;915720;-66
2023/12/01 07:58:57;;;;;;;56.17;29.53;;;;;;;;;;778653;180;814977;-70
2023/12/01 08:01:23;;;;;;;53.70;29.80;;;;;;;;;;768948;178;915533;-70
2023/12/01 08:03:49;;;;;;;47.77;27.53;;;;;;;;;;774131;179;814019;-66
2023/12/01 08:06:15;;;;;;;49.70;26.87;;;;;;;;;;777359;177;914430;-66
2023/12/01 08:08:41;;;;;;;44.70;25.43;;;;;;;;;;770577;178;914063;-66
2023/12/01 08:11:06;;;;;;;54.67;28.40;;;;;;;;;;771652;180;819670;-70
2023/12/01 08:13:32;;;;;;;55.23;28.70;;;;;;;;;;777515;178;996241;-70
2023/12/01 08:15:59;;;;;;;56.30;27.93;;;;;;;;;;772015;178;910559;-70
2023/12/01 08:18:24;;;;;;;54.93;30.60;;;;;;;;;;772250;180;918805;-66
2023/12/01 08:20:50;;;;;;;56.50;28.60;;;;;;;;;;778408;180;819938;-66
2023/12/01 08:23:16;;;;;;;55.37;29.80;;;;;;;;;;770178;180;1020413;-70
2023/12/01 08:25:43;;;;;;;55.50;30.77;;;;;;;;;;772981;178;921185;-70
2023/12/01 08:28:08;;;;;;;59.13;31.63;;;;;;;;;;773000;180;917562;-66
2023/12/01 08:30:34;;;;;;;61.30;32.42;;;;;;;;;;779115;180;814160;-71
2023/12/01 08:33:00;;;;;;;63.30;31.43;;;;;;;;;;773233;179;974037;-71
2023/12/01 08:35:26;;;;;;;48.50;28.97;;;;;;;;;;773570;181;908642;-70
2023/12/01 08:37:51;;;;;;;64.17;30.40;;;;;;;;;;779164;180;918672;-66
2023/12/01 08:40:17;;;;;;;68.03;37.47;;;;;;;;;;772256;180;947575;-71
2023/12/01 08:42:43;;;;;;;64.63;33.13;;;;;;;;;;773170;180;919379;-70
2023/12/01 08:45:09;;;;;;;66.60;34.77;;;;;;;;;;777122;180;918456;-70
2023/12/01 08:47:35;;;;;;;61.57;32.90;;;;;;;;;;772719;180;815596;-67
2023/12/01 08:50:01;;;;;;;59.53;31.67;;;;;;;;;;772629;180;918797;-70
2023/12/01 08:52:27;;;;;;;75.90;44.35;;;;;;;;;;773520;181;1024322;-66
2023/12/01 08:54:53;;;;;;;65.23;32.30;;;;;;;;;;775008;177;922926;-70
2023/12/01 08:57:19;;;;;;;64.77;35.37;;;;;;;;;;773661;178;821707;-66
2023/12/01 08:59:45;;;;;;;69.53;33.77;;;;;;;;;;771970;180;923660;-68
2023/12/01 09:02:10;;;;;;;88.80;44.27;;;;;;;;;;778064;180;919421;-69
2023/12/01 09:04:36;;;;;;;81.63;38.97;;;;;;;;;;772462;180;919318;-69
2023/12/01 09:07:02;;;;;;;73.27;37.93;;;;;;;;;;772952;180;920712;-67
2023/12/01 09:09:28;;;;;;;69.80;37.60;;;;;;;;;;776342;177;913932;-67
2023/12/01 09:11:54;;;;;;;86.80;47.90;;;;;;;;;;772564;178;917973;-68
2023/12/01 09:14:20;;;;;;;143.33;67.07;;;;;;;;;;776021;180;637402;-68
2023/12/01 09:16:46;;;;;;;98.10;53.37;;;;;;;;;;779655;180;620984;-67
2023/12/01 09:19:11;;;;;;;85.30;50.20;;;;;;;;;;775661;180;622427;-68
2023/12/01 09:21:37;;;;;;;77.17;45.67;;;;;;;;;;776459;180;671849;-68
2023/12/01 09:24:03;;;;;;;75.83;41.80;;;;;;;;;;775494;180;713957;-68
2023/12/01 09:26:29;;;;;;;85.93;56.03;;;;;;;;;;780036;180;622673;-68
2023/12/01 09:28:55;;;;;;;74.83;44.27;;;;;;;;;;776503;177;632174;-69
2023/12/01 09:31:21;;;;;;;75.67;46.10;;;;;;;;;;766038;183;629053;-68
2023/12/01 09:33:47;;;;;;;67.20;39.03;;;;;;;;;;773442;179;876064;-69
2023/12/01 09:36:12;;;;;;;70.27;39.27;;;;;;;;;;771675;180;917266;-70
2023/12/01 09:38:38;;;;;;;59.93;33.20;;;;;;;;;;774040;177;917412;-68
2023/12/01 09:41:04;;;;;;;66.23;36.43;;;;;;;;;;780130;180;818393;-68
2023/12/01 09:43:30;;;;;;;75.93;39.30;;;;;;;;;;763664;177;918242;-69
2023/12/01 09:45:56;;;;;;;70.63;37.20;;;;;;;;;;766132;179;913553;-68
2023/12/01 09:48:22;;;;;;;63.05;37.70;;;;;;;;;;775104;179;917587;-68
2023/12/01 09:50:48;;;;;;;64.63;37.93;;;;;;;;;;772717;180;904726;-68
2023/12/01 09:53:16;;;;;;;75.97;37.37;;;;;;;;;;764785;177;833945;-69
2023/12/01 09:55:39;;;;;;;58.03;33.77;;;;;;;;;;767660;180;820635;-70
2023/12/01 09:58:06;;;;;;;57.53;31.80;;;;;;;;;;778622;180;918729;-70
2023/12/01 10:00:31;;;;;;;62.67;33.37;;;;;;;;;;773783;180;819744;-71
2023/12/01 10:02:57;;;;;;;68.70;32.80;;;;;;;;;;773226;178;912977;-67
2023/12/01 10:05:25;;;;;;;59.70;31.30;;;;;;;;;;776635;180;916286;-67
2023/12/01 10:07:49;;;;;;;75.97;41.20;;;;;;;;;;774513;179;721255;-66
2023/12/01 10:10:19;;;;;;;67.93;40.37;;;;;;;;;;766521;180;816809;-67
2023/12/01 10:13:04;;;;;;;59.13;34.87;;;;;;;;;;768105;181;813383;-67
2023/12/01 10:15:29;;;;;;;59.90;34.87;;;;;;;;;;764431;180;918996;-70
2023/12/01 10:17:54;;;;;;;58.73;31.60;;;;;;;;;;776811;178;920163;-71
2023/12/01 10:20:21;;;;;;;59.63;32.43;;;;;;;;;;767000;177;919433;-68
2023/12/01 10:22:49;;;;;;;60.77;31.47;;;;;;;;;;758466;180;919855;-71
2023/12/01 10:25:14;;;;;;;58.73;34.07;;;;;;;;;;776221;180;918788;-72
2023/12/01 10:27:40;;;;;;;66.33;37.20;;;;;;;;;;770786;180;918467;-72
2023/12/01 10:30:10;;;;;;;60.30;35.67;;;;;;;;;;772329;178;1020759;-69
2023/12/01 10:32:35;;;;;;;63.77;35.93;;;;;;;;;;770483;178;908651;-70
2023/12/01 10:35:02;;;;;;;62.73;33.93;;;;;;;;;;769263;181;816366;-69
2023/12/01 10:37:27;;;;;;;61.43;36.27;;;;;;;;;;764473;181;902529;-69
2023/12/01 10:39:54;;;;;;;57.57;30.10;;;;;;;;;;771672;180;818161;-70
2023/12/01 10:42:18;;;;;;;72.77;31.63;;;;;;;;;;776045;180;912464;-71
2023/12/01 10:44:44;;;;;;;168.30;56.87;;;;;;;;;;771186;181;918659;-71
2023/12/01 10:47:10;;;;;;;72.10;37.87;;;;;;;;;;769365;180;920912;-70
2023/12/01 10:49:37;;;;;;;42.80;22.97;;;;;;;;;;779457;180;894550;-69
2023/12/01 10:52:03;;;;;;;74.57;38.27;;;;;;;;;;775901;179;1020892;-70
2023/12/01 10:54:28;;;;;;;81.27;39.13;;;;;;;;;;772710;180;910760;-71
2023/12/01 10:56:55;;;;;;;65.43;36.70;;;;;;;;;;776174;180;916879;-70
2023/12/01 10:59:20;;;;;;;78.70;38.20;;;;;;;;;;777250;180;931704;-69
2023/12/01 11:01:48;;;;;;;40.50;22.83;;;;;;;;;;774012;180;858314;-68
2023/12/01 11:04:12;;;;;;;79.40;39.67;;;;;;;;;;772725;178;914697;-69
2023/12/01 11:06:40;;;;;;;70.33;31.70;;;;;;;;;;777031;177;988371;-68
2023/12/01 11:09:05;;;;;;;76.47;38.10;;;;;;;;;;769393;180;929223;-68
2023/12/01 11:11:30;;;;;;;73.73;37.33;;;;;;;;;;770434;178;912464;-69
2023/12/01 11:14:11;;;;;;;72.90;40.17;;;;;;;;;;780160;178;908945;-67
2023/12/01 11:16:37;;;;;;;93.03;44.17;;;;;;;;;;774125;179;905568;-67
2023/12/01 11:19:03;;;;;;;86.50;41.73;;;;;;;;;;770533;177;917853;-68
2023/12/01 11:21:29;;;;;;;96.17;46.73;;;;;;;;;;772598;180;918224;-68
2023/12/01 11:23:54;;;;;;;97.33;46.87;;;;;;;;;;775926;180;815255;-66
2023/12/01 11:26:20;;;;;;;97.25;46.95;;;;;;;;;;770987;180;919418;-66
2023/12/01 11:28:55;;;;;;;108.37;50.00;;;;;;;;;;768932;180;921460;-67
2023/12/01 11:31:14;;;;;;;102.78;46.10;;;;;;;;;;777284;180;815956;-66
2023/12/01 11:33:39;;;;;;;78.68;32.40;;;;;;;;;;774255;180;916997;-67
2023/12/01 11:36:11;;;;;;;95.67;46.30;;;;;;;;;;772397;180;918833;-67
2023/12/01 11:38:52;;;;;;;90.03;44.97;;;;;;;;;;766208;178;836220;-67
2023/12/01 11:41:21;;;;;;;72.93;36.00;;;;;;;;;;760891;181;917984;-65
2023/12/01 11:43:47;;;;;;;108.83;49.07;;;;;;;;;;777776;180;925310;-66
2023/12/01 11:46:14;;;;;;;91.83;44.27;;;;;;;;;;769982;180;920870;-65
2023/12/01 11:48:39;;;;;;;99.57;46.13;;;;;;;;;;772810;180;918956;-64
2023/12/01 11:51:05;;;;;;;91.83;43.13;;;;;;;;;;772812;180;918599;-64
2023/12/01 11:53:32;;;;;;;86.00;42.87;;;;;;;;;;769619;180;817306;-64
2023/12/01 11:55:57;;;;;;;89.13;43.20;;;;;;;;;;762250;181;910004;-64
2023/12/01 11:58:23;;;;;;;88.17;41.30;;;;;;;;;;770599;180;915080;-66
2023/12/01 12:00:51;;;;;;;97.82;43.28;;;;;;;;;;776837;179;916978;-63
2023/12/01 12:03:18;;;;;;;69.50;32.47;;;;;;;;;;776335;176;919754;-65
2023/12/01 12:05:44;;;;;;;83.30;39.97;;;;;;;;;;772308;177;918548;-62
2023/12/01 12:08:10;;;;;;;161.67;66.93;;;;;;;;;;764551;181;788895;-64
2023/12/01 12:10:36;;;;;;;98.35;51.00;;;;;;;;;;773105;180;819256;-66
2023/12/01 12:13:02;;;;;;;90.73;44.57;;;;;;;;;;771257;180;881067;-64
2023/12/01 12:15:27;;;;;;;79.50;38.33;;;;;;;;;;773596;178;914993;-65
2023/12/01 12:17:53;;;;;;;82.00;46.53;;;;;;;;;;778250;180;887210;-63
2023/12/01 12:20:22;;;;;;;101.03;43.83;;;;;;;;;;771975;178;919662;-63
2023/12/01 12:22:48;;;;;;;111.05;49.65;;;;;;;;;;769335;180;992678;-65
2023/12/01 12:25:14;;;;;;;64.77;36.07;;;;;;;;;;777100;180;917939;-67
2023/12/01 12:27:40;;;;;;;107.90;49.33;;;;;;;;;;775109;178;869771;-66
2023/12/01 12:30:06;;;;;;;104.63;55.37;;;;;;;;;;771072;180;917539;-66
2023/12/01 12:32:32;;;;;;;91.77;46.70;;;;;;;;;;778566;180;811631;-63
2023/12/01 12:34:57;;;;;;;84.23;43.97;;;;;;;;;;774293;180;822277;-66
2023/12/01 12:37:23;;;;;;;72.50;41.17;;;;;;;;;;774758;178;629589;-66
2023/12/01 12:39:51;;;;;;;91.10;48.03;;;;;;;;;;776617;180;624933;-65
2023/12/01 12:42:16;;;;;;;92.17;48.50;;;;;;;;;;780079;180;633424;-65
2023/12/01 12:44:42;;;;;;;91.77;49.43;;;;;;;;;;768451;180;918583;-64
2023/12/01 12:47:08;;;;;;;84.83;44.37;;;;;;;;;;764262;181;918740;-63
2023/12/01 12:49:33;;;;;;;53.30;28.27;;;;;;;;;;778534;180;635938;-62
2023/12/01 12:51:59;;;;;;;72.97;42.97;;;;;;;;;;774788;178;623228;-65
2023/12/01 12:54:25;;;;;;;73.35;35.97;;;;;;;;;;770595;180;888809;-62
2023/12/01 12:56:51;;;;;;;65.43;37.27;;;;;;;;;;777055;180;825034;-62
2023/12/01 12:59:17;;;;;;;79.37;41.90;;;;;;;;;;774927;178;809049;-65
2023/12/01 13:01:43;;;;;;;75.37;40.50;;;;;;;;;;772023;180;895960;-62
2023/12/01 13:04:08;;;;;;;70.33;40.40;;;;;;;;;;770164;180;915382;-62
2023/12/01 13:06:35;;;;;;;78.93;42.30;;;;;;;;;;769025;180;800982;-66
2023/12/01 13:09:00;;;;;;;62.95;31.17;;;;;;;;;;770080;179;915915;-62
2023/12/01 13:11:27;;;;;;;63.33;32.30;;;;;;;;;;772188;179;948963;-66
2023/12/01 13:13:53;;;;;;;82.30;40.03;;;;;;;;;;779404;178;895169;-65
2023/12/01 13:16:19;;;;;;;79.70;44.83;;;;;;;;;;774276;180;920602;-62
2023/12/01 13:18:46;;;;;;;78.25;41.92;;;;;;;;;;771370;180;921793;-64
2023/12/01 13:21:10;;;;;;;87.43;48.17;;;;;;;;;;779350;180;717736;-61
2023/12/01 13:23:38;;;;;;;83.17;49.07;;;;;;;;;;774025;180;918604;-62
2023/12/01 13:26:03;;;;;;;68.97;41.23;;;;;;;;;;771811;180;922006;-61
2023/12/01 13:28:29;;;;;;;80.78;46.95;;;;;;;;;;775987;180;920914;-62
2023/12/01 13:30:54;;;;;;;52.93;30.30;;;;;;;;;;771742;181;916541;-65
2023/12/01 13:33:20;;;;;;;51.70;29.80;;;;;;;;;;771602;180;918547;-65
2023/12/01 13:35:46;;;;;;;76.35;41.47;;;;;;;;;;772388;180;890524;-65
2023/12/01 13:38:12;;;;;;;81.93;43.40;;;;;;;;;;777249;180;900288;-62
2023/12/01 13:40:38;;;;;;;85.67;45.67;;;;;;;;;;772600;180;918825;-62
2023/12/01 13:43:04;;;;;;;95.33;54.07;;;;;;;;;;771857;180;920998;-62
2023/12/01 13:45:29;;;;;;;95.37;51.20;;;;;;;;;;776217;180;918378;-65
2023/12/01 13:47:55;;;;;;;92.83;49.07;;;;;;;;;;770223;180;919106;-62
2023/12/01 13:50:21;;;;;;;100.28;55.25;;;;;;;;;;772052;181;825681;-64
2023/12/01 13:52:47;;;;;;;101.57;56.27;;;;;;;;;;775484;180;1023091;-62
2023/12/01 13:55:13;;;;;;;82.33;43.10;;;;;;;;;;770859;180;934029;-65
2023/12/01 13:57:39;;;;;;;94.30;51.90;;;;;;;;;;770810;178;920518;-65